sensor_id;sensor_type;location;lat;lon;timestamp;P1;durP1;ratioP1;P2;durP2;ratioP2
44588;SDS011;30298;52.562;13.414;2022-10-22T00:01:01;44.03;;;21.87;;
44588;SDS011;30298;52.562;13.414;2022-10-22T00:03:27;45.70;;;22.07;;
44588;SDS011;30298;52.562;13.414;2022-10-22T00:05:52;49.43;;;24.67;;
44588;SDS011;30298;52.562;13.414;2022-10-22T00:08:17;42.30;;;22.23;;
44588;SDS011;30298;52.562;13.414;2022-10-22T00:10:42;48.90;;;24.20;;
44588;SDS011;30298;52.562;13.414;2022-10-22T00:13:08;50.07;;;24.33;;
44588;SDS011;30298;52.562;13.414;2022-10-22T00:15:34;55.42;;;25.10;;
44588;SDS011;30298;52.562;13.414;2022-10-22T00:17:59;54.70;;;24.87;;
44588;SDS011;30298;52.562;13.414;2022-10-22T00:20:24;43.83;;;22.10;;
44588;SDS011;30298;52.562;13.414;2022-10-22T00:22:49;48.40;;;22.93;;
44588;SDS011;30298;52.562;13.414;2022-10-22T00:25:15;46.77;;;23.73;;
44588;SDS011;30298;52.562;13.414;2022-10-22T00:27:40;39.07;;;20.33;;
44588;SDS011;30298;52.562;13.414;2022-10-22T00:30:05;42.30;;;21.23;;
44588;SDS011;30298;52.562;13.414;2022-10-22T00:32:31;35.78;;;20.35;;
44588;SDS011;30298;52.562;13.414;2022-10-22T00:34:56;44.87;;;21.70;;
44588;SDS011;30298;52.562;13.414;2022-10-22T00:37:21;44.77;;;21.63;;
44588;SDS011;30298;52.562;13.414;2022-10-22T00:39:47;37.70;;;21.47;;
44588;SDS011;30298;52.562;13.414;2022-10-22T00:42:15;44.90;;;21.40;;
44588;SDS011;30298;52.562;13.414;2022-10-22T00:47:26;44.47;;;21.95;;
44588;SDS011;30298;52.562;13.414;2022-10-22T00:49:52;42.95;;;22.48;;
44588;SDS011;30298;52.562;13.414;2022-10-22T00:52:18;45.90;;;24.05;;
44588;SDS011;30298;52.562;13.414;2022-10-22T00:54:43;45.60;;;21.50;;
44588;SDS011;30298;52.562;13.414;2022-10-22T00:57:08;50.13;;;22.67;;
44588;SDS011;30298;52.562;13.414;2022-10-22T00:59:34;43.77;;;22.03;;
44588;SDS011;30298;52.562;13.414;2022-10-22T01:01:59;42.80;;;20.80;;
44588;SDS011;30298;52.562;13.414;2022-10-22T01:04:24;38.40;;;20.57;;
44588;SDS011;30298;52.562;13.414;2022-10-22T01:06:50;39.53;;;20.33;;
44588;SDS011;30298;52.562;13.414;2022-10-22T01:12:09;45.15;;;21.83;;
44588;SDS011;30298;52.562;13.414;2022-10-22T01:14:58;42.00;;;20.30;;
44588;SDS011;30298;52.562;13.414;2022-10-22T01:17:31;42.88;;;21.60;;
44588;SDS011;30298;52.562;13.414;2022-10-22T01:20:02;39.15;;;20.73;;
44588;SDS011;30298;52.562;13.414;2022-10-22T01:22:34;41.95;;;21.02;;
44588;SDS011;30298;52.562;13.414;2022-10-22T01:28:00;38.00;;;20.52;;
44588;SDS011;30298;52.562;13.414;2022-10-22T01:30:28;45.28;;;22.58;;
44588;SDS011;30298;52.562;13.414;2022-10-22T01:32:55;38.00;;;21.03;;
44588;SDS011;30298;52.562;13.414;2022-10-22T01:35:24;38.33;;;20.20;;
44588;SDS011;30298;52.562;13.414;2022-10-22T01:37:54;41.70;;;21.23;;
44588;SDS011;30298;52.562;13.414;2022-10-22T01:40:20;40.55;;;21.75;;
44588;SDS011;30298;52.562;13.414;2022-10-22T01:42:59;38.30;;;20.27;;
44588;SDS011;30298;52.562;13.414;2022-10-22T01:45:25;41.53;;;21.35;;
44588;SDS011;30298;52.562;13.414;2022-10-22T01:47:55;42.38;;;21.40;;
44588;SDS011;30298;52.562;13.414;2022-10-22T01:50:28;41.65;;;20.23;;
44588;SDS011;30298;52.562;13.414;2022-10-22T01:55:28;44.40;;;20.60;;
44588;SDS011;30298;52.562;13.414;2022-10-22T02:00:20;45.73;;;20.67;;
44588;SDS011;30298;52.562;13.414;2022-10-22T02:05:20;49.65;;;22.60;;
44588;SDS011;30298;52.562;13.414;2022-10-22T02:07:48;46.20;;;20.98;;
44588;SDS011;30298;52.562;13.414;2022-10-22T02:10:13;44.72;;;21.92;;
44588;SDS011;30298;52.562;13.414;2022-10-22T02:12:41;44.08;;;21.88;;
44588;SDS011;30298;52.562;13.414;2022-10-22T02:15:07;46.88;;;21.92;;
44588;SDS011;30298;52.562;13.414;2022-10-22T02:17:34;42.10;;;20.95;;
44588;SDS011;30298;52.562;13.414;2022-10-22T02:20:02;43.25;;;20.85;;
44588;SDS011;30298;52.562;13.414;2022-10-22T02:22:29;41.65;;;20.92;;
44588;SDS011;30298;52.562;13.414;2022-10-22T02:24:55;45.40;;;20.83;;
44588;SDS011;30298;52.562;13.414;2022-10-22T02:30:00;44.97;;;20.25;;
44588;SDS011;30298;52.562;13.414;2022-10-22T02:32:29;42.65;;;21.15;;
44588;SDS011;30298;52.562;13.414;2022-10-22T02:34:55;40.58;;;20.02;;
44588;SDS011;30298;52.562;13.414;2022-10-22T02:37:20;43.75;;;19.60;;
44588;SDS011;30298;52.562;13.414;2022-10-22T02:39:46;41.47;;;19.80;;
44588;SDS011;30298;52.562;13.414;2022-10-22T02:42:12;46.00;;;20.50;;
44588;SDS011;30298;52.562;13.414;2022-10-22T02:44:38;43.80;;;20.00;;
44588;SDS011;30298;52.562;13.414;2022-10-22T02:47:03;40.77;;;20.60;;
44588;SDS011;30298;52.562;13.414;2022-10-22T02:49:28;44.97;;;20.73;;
44588;SDS011;30298;52.562;13.414;2022-10-22T02:51:53;41.27;;;19.33;;
44588;SDS011;30298;52.562;13.414;2022-10-22T02:54:19;44.53;;;19.77;;
44588;SDS011;30298;52.562;13.414;2022-10-22T02:56:44;38.33;;;19.52;;
44588;SDS011;30298;52.562;13.414;2022-10-22T02:59:09;38.17;;;19.37;;
44588;SDS011;30298;52.562;13.414;2022-10-22T03:01:35;42.23;;;20.00;;
44588;SDS011;30298;52.562;13.414;2022-10-22T03:04:00;39.47;;;18.67;;
44588;SDS011;30298;52.562;13.414;2022-10-22T03:06:25;39.97;;;19.60;;
44588;SDS011;30298;52.562;13.414;2022-10-22T03:08:50;38.03;;;18.13;;
44588;SDS011;30298;52.562;13.414;2022-10-22T03:11:16;42.27;;;19.90;;
44588;SDS011;30298;52.562;13.414;2022-10-22T03:13:41;40.63;;;19.63;;
44588;SDS011;30298;52.562;13.414;2022-10-22T03:16:06;41.60;;;19.77;;
44588;SDS011;30298;52.562;13.414;2022-10-22T03:18:31;38.60;;;19.57;;
44588;SDS011;30298;52.562;13.414;2022-10-22T03:21:05;43.57;;;20.93;;
44588;SDS011;30298;52.562;13.414;2022-10-22T03:23:31;40.15;;;19.67;;
44588;SDS011;30298;52.562;13.414;2022-10-22T03:25:57;45.95;;;20.67;;
44588;SDS011;30298;52.562;13.414;2022-10-22T03:28:22;41.30;;;19.80;;
44588;SDS011;30298;52.562;13.414;2022-10-22T03:30:48;37.33;;;18.60;;
44588;SDS011;30298;52.562;13.414;2022-10-22T03:33:13;41.07;;;19.10;;
44588;SDS011;30298;52.562;13.414;2022-10-22T03:35:39;41.97;;;19.33;;
44588;SDS011;30298;52.562;13.414;2022-10-22T03:38:06;38.33;;;18.88;;
44588;SDS011;30298;52.562;13.414;2022-10-22T03:40:31;36.17;;;18.37;;
44588;SDS011;30298;52.562;13.414;2022-10-22T03:42:57;39.03;;;19.87;;
44588;SDS011;30298;52.562;13.414;2022-10-22T03:45:22;36.73;;;18.87;;
44588;SDS011;30298;52.562;13.414;2022-10-22T03:47:47;35.20;;;19.67;;
44588;SDS011;30298;52.562;13.414;2022-10-22T03:50:13;33.93;;;17.83;;
44588;SDS011;30298;52.562;13.414;2022-10-22T03:52:38;39.87;;;20.17;;
44588;SDS011;30298;52.562;13.414;2022-10-22T03:55:04;37.58;;;18.65;;
44588;SDS011;30298;52.562;13.414;2022-10-22T03:57:30;39.53;;;19.55;;
44588;SDS011;30298;52.562;13.414;2022-10-22T03:59:55;36.40;;;18.92;;
44588;SDS011;30298;52.562;13.414;2022-10-22T04:02:20;38.23;;;19.27;;
44588;SDS011;30298;52.562;13.414;2022-10-22T04:04:46;37.30;;;19.43;;
44588;SDS011;30298;52.562;13.414;2022-10-22T04:07:11;35.83;;;18.87;;
44588;SDS011;30298;52.562;13.414;2022-10-22T04:09:36;38.90;;;19.00;;
44588;SDS011;30298;52.562;13.414;2022-10-22T04:12:02;33.50;;;18.10;;
44588;SDS011;30298;52.562;13.414;2022-10-22T04:14:29;36.35;;;19.55;;
44588;SDS011;30298;52.562;13.414;2022-10-22T04:16:54;37.53;;;19.08;;
44588;SDS011;30298;52.562;13.414;2022-10-22T04:19:20;36.23;;;18.60;;
44588;SDS011;30298;52.562;13.414;2022-10-22T04:21:45;33.17;;;17.53;;
44588;SDS011;30298;52.562;13.414;2022-10-22T04:24:10;39.80;;;18.60;;
44588;SDS011;30298;52.562;13.414;2022-10-22T04:26:36;35.83;;;17.30;;
44588;SDS011;30298;52.562;13.414;2022-10-22T04:29:01;35.03;;;19.40;;
44588;SDS011;30298;52.562;13.414;2022-10-22T04:31:26;39.60;;;22.42;;
44588;SDS011;30298;52.562;13.414;2022-10-22T04:33:53;42.80;;;21.55;;
44588;SDS011;30298;52.562;13.414;2022-10-22T04:36:18;38.85;;;19.98;;
44588;SDS011;30298;52.562;13.414;2022-10-22T04:38:45;35.97;;;18.15;;
44588;SDS011;30298;52.562;13.414;2022-10-22T04:43:35;32.67;;;17.70;;
44588;SDS011;30298;52.562;13.414;2022-10-22T04:46:01;33.00;;;17.33;;
44588;SDS011;30298;52.562;13.414;2022-10-22T04:48:26;34.30;;;17.50;;
44588;SDS011;30298;52.562;13.414;2022-10-22T04:50:51;32.00;;;17.40;;
44588;SDS011;30298;52.562;13.414;2022-10-22T04:53:17;33.43;;;17.67;;
44588;SDS011;30298;52.562;13.414;2022-10-22T04:55:42;35.13;;;17.33;;
44588;SDS011;30298;52.562;13.414;2022-10-22T04:58:07;33.37;;;18.10;;
44588;SDS011;30298;52.562;13.414;2022-10-22T05:00:32;31.37;;;17.13;;
44588;SDS011;30298;52.562;13.414;2022-10-22T05:02:57;30.73;;;17.43;;
44588;SDS011;30298;52.562;13.414;2022-10-22T05:05:23;34.03;;;17.33;;
44588;SDS011;30298;52.562;13.414;2022-10-22T05:07:49;33.00;;;17.70;;
44588;SDS011;30298;52.562;13.414;2022-10-22T05:10:14;32.03;;;18.02;;
44588;SDS011;30298;52.562;13.414;2022-10-22T05:12:40;32.03;;;17.97;;
44588;SDS011;30298;52.562;13.414;2022-10-22T05:15:05;35.77;;;17.80;;
44588;SDS011;30298;52.562;13.414;2022-10-22T05:17:30;35.05;;;18.23;;
44588;SDS011;30298;52.562;13.414;2022-10-22T05:19:59;38.00;;;17.85;;
44588;SDS011;30298;52.562;13.414;2022-10-22T05:22:24;35.30;;;18.20;;
44588;SDS011;30298;52.562;13.414;2022-10-22T05:24:49;34.53;;;17.20;;
44588;SDS011;30298;52.562;13.414;2022-10-22T05:27:14;34.30;;;17.77;;
44588;SDS011;30298;52.562;13.414;2022-10-22T05:29:39;31.13;;;17.07;;
44588;SDS011;30298;52.562;13.414;2022-10-22T05:32:04;36.33;;;18.23;;
44588;SDS011;30298;52.562;13.414;2022-10-22T05:34:30;37.80;;;18.57;;
44588;SDS011;30298;52.562;13.414;2022-10-22T05:36:57;32.53;;;17.27;;
44588;SDS011;30298;52.562;13.414;2022-10-22T05:39:22;35.57;;;18.40;;
44588;SDS011;30298;52.562;13.414;2022-10-22T05:41:47;38.17;;;18.33;;
44588;SDS011;30298;52.562;13.414;2022-10-22T05:44:12;37.17;;;19.07;;
44588;SDS011;30298;52.562;13.414;2022-10-22T05:46:38;36.00;;;19.37;;
44588;SDS011;30298;52.562;13.414;2022-10-22T05:49:04;34.80;;;18.52;;
44588;SDS011;30298;52.562;13.414;2022-10-22T05:51:31;35.25;;;19.23;;
44588;SDS011;30298;52.562;13.414;2022-10-22T05:54:00;35.47;;;18.20;;
44588;SDS011;30298;52.562;13.414;2022-10-22T05:56:26;35.72;;;18.27;;
44588;SDS011;30298;52.562;13.414;2022-10-22T05:58:52;37.78;;;18.20;;
44588;SDS011;30298;52.562;13.414;2022-10-22T06:01:21;37.13;;;17.90;;
44588;SDS011;30298;52.562;13.414;2022-10-22T06:03:47;34.10;;;18.15;;
44588;SDS011;30298;52.562;13.414;2022-10-22T06:06:28;31.90;;;16.33;;
44588;SDS011;30298;52.562;13.414;2022-10-22T06:08:54;35.10;;;17.63;;
44588;SDS011;30298;52.562;13.414;2022-10-22T06:11:20;40.40;;;19.20;;
44588;SDS011;30298;52.562;13.414;2022-10-22T06:13:46;34.20;;;18.05;;
44588;SDS011;30298;52.562;13.414;2022-10-22T06:16:11;32.85;;;17.77;;
44588;SDS011;30298;52.562;13.414;2022-10-22T06:18:36;38.27;;;18.73;;
44588;SDS011;30298;52.562;13.414;2022-10-22T06:21:05;36.30;;;18.77;;
44588;SDS011;30298;52.562;13.414;2022-10-22T06:23:31;34.55;;;18.90;;
44588;SDS011;30298;52.562;13.414;2022-10-22T06:25:57;38.27;;;18.40;;
44588;SDS011;30298;52.562;13.414;2022-10-22T06:28:22;34.33;;;18.00;;
44588;SDS011;30298;52.562;13.414;2022-10-22T06:30:47;35.17;;;17.73;;
44588;SDS011;30298;52.562;13.414;2022-10-22T06:33:12;36.83;;;18.87;;
44588;SDS011;30298;52.562;13.414;2022-10-22T06:35:38;32.10;;;18.17;;
44588;SDS011;30298;52.562;13.414;2022-10-22T06:38:03;35.50;;;19.80;;
44588;SDS011;30298;52.562;13.414;2022-10-22T06:40:29;30.33;;;18.07;;
44588;SDS011;30298;52.562;13.414;2022-10-22T06:42:54;33.60;;;18.00;;
44588;SDS011;30298;52.562;13.414;2022-10-22T06:45:19;32.97;;;19.13;;
44588;SDS011;30298;52.562;13.414;2022-10-22T06:47:44;30.53;;;17.23;;
44588;SDS011;30298;52.562;13.414;2022-10-22T06:50:11;34.42;;;17.90;;
44588;SDS011;30298;52.562;13.414;2022-10-22T06:52:36;28.97;;;16.17;;
44588;SDS011;30298;52.562;13.414;2022-10-22T06:55:01;31.53;;;16.63;;
44588;SDS011;30298;52.562;13.414;2022-10-22T06:57:26;26.93;;;16.10;;
44588;SDS011;30298;52.562;13.414;2022-10-22T06:59:53;29.60;;;16.05;;
44588;SDS011;30298;52.562;13.414;2022-10-22T07:02:18;26.60;;;17.43;;
44588;SDS011;30298;52.562;13.414;2022-10-22T07:04:43;29.27;;;16.87;;
44588;SDS011;30298;52.562;13.414;2022-10-22T07:07:09;24.73;;;15.07;;
44588;SDS011;30298;52.562;13.414;2022-10-22T07:09:34;25.87;;;15.37;;
44588;SDS011;30298;52.562;13.414;2022-10-22T07:11:59;27.43;;;14.67;;
44588;SDS011;30298;52.562;13.414;2022-10-22T07:14:24;24.70;;;15.40;;
44588;SDS011;30298;52.562;13.414;2022-10-22T07:16:50;25.97;;;14.87;;
44588;SDS011;30298;52.562;13.414;2022-10-22T07:19:15;25.60;;;14.60;;
44588;SDS011;30298;52.562;13.414;2022-10-22T07:21:40;24.33;;;14.83;;
44588;SDS011;30298;52.562;13.414;2022-10-22T07:24:05;26.60;;;16.13;;
44588;SDS011;30298;52.562;13.414;2022-10-22T07:26:31;21.13;;;15.43;;
44588;SDS011;30298;52.562;13.414;2022-10-22T07:28:57;23.67;;;15.60;;
44588;SDS011;30298;52.562;13.414;2022-10-22T07:31:22;21.63;;;13.55;;
44588;SDS011;30298;52.562;13.414;2022-10-22T07:33:47;24.03;;;13.63;;
44588;SDS011;30298;52.562;13.414;2022-10-22T07:36:13;24.83;;;14.27;;
44588;SDS011;30298;52.562;13.414;2022-10-22T07:38:42;24.35;;;14.98;;
44588;SDS011;30298;52.562;13.414;2022-10-22T07:41:08;20.92;;;13.00;;
44588;SDS011;30298;52.562;13.414;2022-10-22T07:43:33;22.80;;;14.70;;
44588;SDS011;30298;52.562;13.414;2022-10-22T07:45:58;18.67;;;13.20;;
44588;SDS011;30298;52.562;13.414;2022-10-22T07:48:24;24.20;;;14.98;;
44588;SDS011;30298;52.562;13.414;2022-10-22T07:50:50;18.83;;;13.00;;
44588;SDS011;30298;52.562;13.414;2022-10-22T07:53:15;21.92;;;13.60;;
44588;SDS011;30298;52.562;13.414;2022-10-22T07:55:40;23.13;;;14.13;;
44588;SDS011;30298;52.562;13.414;2022-10-22T07:58:05;18.43;;;12.80;;
44588;SDS011;30298;52.562;13.414;2022-10-22T08:00:31;18.37;;;12.83;;
44588;SDS011;30298;52.562;13.414;2022-10-22T08:02:56;19.60;;;12.23;;
44588;SDS011;30298;52.562;13.414;2022-10-22T08:05:21;18.05;;;13.18;;
44588;SDS011;30298;52.562;13.414;2022-10-22T08:07:47;19.53;;;12.77;;
44588;SDS011;30298;52.562;13.414;2022-10-22T08:10:12;18.60;;;13.10;;
44588;SDS011;30298;52.562;13.414;2022-10-22T08:12:38;20.77;;;14.23;;
44588;SDS011;30298;52.562;13.414;2022-10-22T08:15:03;20.92;;;14.20;;
44588;SDS011;30298;52.562;13.414;2022-10-22T08:17:29;27.73;;;14.35;;
44588;SDS011;30298;52.562;13.414;2022-10-22T08:19:54;22.90;;;14.53;;
44588;SDS011;30298;52.562;13.414;2022-10-22T08:22:19;19.23;;;13.37;;
44588;SDS011;30298;52.562;13.414;2022-10-22T08:24:44;18.60;;;12.87;;
44588;SDS011;30298;52.562;13.414;2022-10-22T08:27:10;21.58;;;13.48;;
44588;SDS011;30298;52.562;13.414;2022-10-22T08:29:35;20.00;;;13.03;;
44588;SDS011;30298;52.562;13.414;2022-10-22T08:32:00;20.40;;;12.67;;
44588;SDS011;30298;52.562;13.414;2022-10-22T08:34:29;18.67;;;13.20;;
44588;SDS011;30298;52.562;13.414;2022-10-22T08:36:54;21.75;;;13.43;;
44588;SDS011;30298;52.562;13.414;2022-10-22T08:39:19;20.90;;;13.40;;
44588;SDS011;30298;52.562;13.414;2022-10-22T08:49:25;18.17;;;12.75;;
44588;SDS011;30298;52.562;13.414;2022-10-22T08:51:52;19.58;;;13.55;;
44588;SDS011;30298;52.562;13.414;2022-10-22T08:56:44;18.50;;;13.70;;
44588;SDS011;30298;52.562;13.414;2022-10-22T09:02:25;20.80;;;12.15;;
44588;SDS011;30298;52.562;13.414;2022-10-22T09:05:15;20.60;;;12.88;;
44588;SDS011;30298;52.562;13.414;2022-10-22T09:07:42;19.95;;;13.52;;
44588;SDS011;30298;52.562;13.414;2022-10-22T09:10:08;19.13;;;12.77;;
44588;SDS011;30298;52.562;13.414;2022-10-22T09:12:35;19.63;;;12.32;;
44588;SDS011;30298;52.562;13.414;2022-10-22T09:15:00;23.23;;;13.30;;
44588;SDS011;30298;52.562;13.414;2022-10-22T09:19:59;18.20;;;13.10;;
44588;SDS011;30298;52.562;13.414;2022-10-22T09:24:57;21.63;;;12.60;;
44588;SDS011;30298;52.562;13.414;2022-10-22T09:27:27;20.45;;;13.73;;
44588;SDS011;30298;52.562;13.414;2022-10-22T09:29:52;16.60;;;11.73;;
44588;SDS011;30298;52.562;13.414;2022-10-22T09:32:18;19.53;;;12.50;;
44588;SDS011;30298;52.562;13.414;2022-10-22T09:34:44;18.35;;;12.25;;
44588;SDS011;30298;52.562;13.414;2022-10-22T09:37:10;22.10;;;13.10;;
44588;SDS011;30298;52.562;13.414;2022-10-22T09:39:40;19.17;;;13.50;;
44588;SDS011;30298;52.562;13.414;2022-10-22T09:42:06;18.25;;;12.38;;
44588;SDS011;30298;52.562;13.414;2022-10-22T09:44:32;18.17;;;12.18;;
44588;SDS011;30298;52.562;13.414;2022-10-22T09:46:57;17.02;;;11.50;;
44588;SDS011;30298;52.562;13.414;2022-10-22T09:49:23;20.63;;;12.33;;
44588;SDS011;30298;52.562;13.414;2022-10-22T09:51:53;16.95;;;11.27;;
44588;SDS011;30298;52.562;13.414;2022-10-22T09:54:26;14.15;;;10.57;;
44588;SDS011;30298;52.562;13.414;2022-10-22T09:57:03;14.60;;;11.25;;
44588;SDS011;30298;52.562;13.414;2022-10-22T09:59:32;16.05;;;10.38;;
44588;SDS011;30298;52.562;13.414;2022-10-22T10:02:25;15.68;;;11.35;;
44588;SDS011;30298;52.562;13.414;2022-10-22T10:04:52;15.43;;;10.30;;
44588;SDS011;30298;52.562;13.414;2022-10-22T10:07:21;16.50;;;10.70;;
44588;SDS011;30298;52.562;13.414;2022-10-22T10:09:47;15.93;;;10.73;;
44588;SDS011;30298;52.562;13.414;2022-10-22T10:17:46;15.73;;;11.95;;
44588;SDS011;30298;52.562;13.414;2022-10-22T10:30:19;18.55;;;12.18;;
44588;SDS011;30298;52.562;13.414;2022-10-22T10:32:59;16.17;;;12.30;;
44588;SDS011;30298;52.562;13.414;2022-10-22T10:35:32;18.27;;;12.00;;
44588;SDS011;30298;52.562;13.414;2022-10-22T10:43:28;22.40;;;13.88;;
44588;SDS011;30298;52.562;13.414;2022-10-22T10:48:47;22.73;;;12.98;;
44588;SDS011;30298;52.562;13.414;2022-10-22T10:54:06;18.55;;;13.38;;
44588;SDS011;30298;52.562;13.414;2022-10-22T10:56:40;19.35;;;12.50;;
44588;SDS011;30298;52.562;13.414;2022-10-22T11:01:53;18.95;;;12.35;;
44588;SDS011;30298;52.562;13.414;2022-10-22T11:07:06;17.30;;;12.45;;
44588;SDS011;30298;52.562;13.414;2022-10-22T11:09:35;19.23;;;12.85;;
44588;SDS011;30298;52.562;13.414;2022-10-22T11:12:03;23.45;;;12.50;;
44588;SDS011;30298;52.562;13.414;2022-10-22T11:16:55;17.67;;;12.33;;
44588;SDS011;30298;52.562;13.414;2022-10-22T11:22:10;23.88;;;13.45;;
44588;SDS011;30298;52.562;13.414;2022-10-22T11:27:20;19.42;;;12.68;;
44588;SDS011;30298;52.562;13.414;2022-10-22T11:29:48;19.33;;;12.90;;
44588;SDS011;30298;52.562;13.414;2022-10-22T11:32:16;22.20;;;13.43;;
44588;SDS011;30298;52.562;13.414;2022-10-22T11:34:47;18.83;;;12.57;;
44588;SDS011;30298;52.562;13.414;2022-10-22T11:37:12;21.38;;;12.45;;
44588;SDS011;30298;52.562;13.414;2022-10-22T11:39:42;19.13;;;12.25;;
44588;SDS011;30298;52.562;13.414;2022-10-22T11:42:10;19.27;;;12.90;;
44588;SDS011;30298;52.562;13.414;2022-10-22T11:47:34;18.75;;;13.05;;
44588;SDS011;30298;52.562;13.414;2022-10-22T11:53:11;21.23;;;13.23;;
44588;SDS011;30298;52.562;13.414;2022-10-22T12:16:16;19.45;;;11.70;;
44588;SDS011;30298;52.562;13.414;2022-10-22T12:18:42;16.87;;;11.70;;
44588;SDS011;30298;52.562;13.414;2022-10-22T12:21:10;19.58;;;12.02;;
44588;SDS011;30298;52.562;13.414;2022-10-22T12:23:36;17.17;;;10.98;;
44588;SDS011;30298;52.562;13.414;2022-10-22T12:26:02;14.73;;;9.82;;
44588;SDS011;30298;52.562;13.414;2022-10-22T12:28:28;18.13;;;10.30;;
44588;SDS011;30298;52.562;13.414;2022-10-22T12:30:53;12.73;;;9.53;;
44588;SDS011;30298;52.562;13.414;2022-10-22T12:33:21;14.47;;;8.63;;
44588;SDS011;30298;52.562;13.414;2022-10-22T12:35:47;17.33;;;9.20;;
44588;SDS011;30298;52.562;13.414;2022-10-22T12:38:16;11.20;;;8.60;;
44588;SDS011;30298;52.562;13.414;2022-10-22T12:40:42;12.20;;;8.15;;
44588;SDS011;30298;52.562;13.414;2022-10-22T12:43:12;9.80;;;6.75;;
44588;SDS011;30298;52.562;13.414;2022-10-22T12:45:37;12.25;;;6.63;;
44588;SDS011;30298;52.562;13.414;2022-10-22T12:48:04;11.65;;;6.82;;
44588;SDS011;30298;52.562;13.414;2022-10-22T12:50:31;10.48;;;6.50;;
44588;SDS011;30298;52.562;13.414;2022-10-22T12:52:57;9.63;;;6.07;;
44588;SDS011;30298;52.562;13.414;2022-10-22T12:55:22;9.18;;;6.20;;
44588;SDS011;30298;52.562;13.414;2022-10-22T12:57:52;10.45;;;5.50;;
44588;SDS011;30298;52.562;13.414;2022-10-22T13:00:21;7.77;;;4.97;;
44588;SDS011;30298;52.562;13.414;2022-10-22T13:02:47;8.13;;;5.25;;
44588;SDS011;30298;52.562;13.414;2022-10-22T13:08:03;7.40;;;5.03;;
44588;SDS011;30298;52.562;13.414;2022-10-22T13:10:32;8.65;;;4.78;;
44588;SDS011;30298;52.562;13.414;2022-10-22T13:12:58;8.82;;;4.78;;
44588;SDS011;30298;52.562;13.414;2022-10-22T13:18:01;7.95;;;4.70;;
44588;SDS011;30298;52.562;13.414;2022-10-22T13:20:26;9.77;;;4.07;;
44588;SDS011;30298;52.562;13.414;2022-10-22T13:22:55;6.18;;;4.00;;
44588;SDS011;30298;52.562;13.414;2022-10-22T13:33:05;9.57;;;4.10;;
44588;SDS011;30298;52.562;13.414;2022-10-22T13:35:32;7.57;;;3.53;;
44588;SDS011;30298;52.562;13.414;2022-10-22T13:37:58;8.55;;;3.58;;
44588;SDS011;30298;52.562;13.414;2022-10-22T13:40:23;5.60;;;3.25;;
44588;SDS011;30298;52.562;13.414;2022-10-22T13:42:49;7.03;;;3.45;;
44588;SDS011;30298;52.562;13.414;2022-10-22T13:45:14;6.60;;;3.00;;
44588;SDS011;30298;52.562;13.414;2022-10-22T13:47:40;8.05;;;3.15;;
44588;SDS011;30298;52.562;13.414;2022-10-22T13:50:10;7.65;;;3.28;;
44588;SDS011;30298;52.562;13.414;2022-10-22T13:52:40;5.05;;;2.95;;
44588;SDS011;30298;52.562;13.414;2022-10-22T13:55:22;8.13;;;3.25;;
44588;SDS011;30298;52.562;13.414;2022-10-22T13:57:49;5.40;;;3.03;;
44588;SDS011;30298;52.562;13.414;2022-10-22T14:00:16;9.02;;;3.38;;
44588;SDS011;30298;52.562;13.414;2022-10-22T14:02:42;6.80;;;3.10;;
44588;SDS011;30298;52.562;13.414;2022-10-22T14:05:08;5.40;;;3.15;;
44588;SDS011;30298;52.562;13.414;2022-10-22T14:07:35;5.40;;;3.03;;
44588;SDS011;30298;52.562;13.414;2022-10-22T14:10:01;9.20;;;3.40;;
44588;SDS011;30298;52.562;13.414;2022-10-22T14:14:52;5.53;;;3.20;;
44588;SDS011;30298;52.562;13.414;2022-10-22T14:17:17;6.22;;;3.08;;
44588;SDS011;30298;52.562;13.414;2022-10-22T14:19:43;6.18;;;3.20;;
44588;SDS011;30298;52.562;13.414;2022-10-22T14:22:13;4.50;;;3.00;;
44588;SDS011;30298;52.562;13.414;2022-10-22T14:24:39;7.40;;;3.97;;
44588;SDS011;30298;52.562;13.414;2022-10-22T14:27:04;8.70;;;3.50;;
44588;SDS011;30298;52.562;13.414;2022-10-22T14:29:29;7.93;;;3.17;;
44588;SDS011;30298;52.562;13.414;2022-10-22T14:31:54;5.70;;;3.10;;
44588;SDS011;30298;52.562;13.414;2022-10-22T14:34:20;5.35;;;2.97;;
44588;SDS011;30298;52.562;13.414;2022-10-22T14:36:45;8.23;;;3.03;;
44588;SDS011;30298;52.562;13.414;2022-10-22T14:39:11;9.23;;;3.33;;
44588;SDS011;30298;52.562;13.414;2022-10-22T14:41:36;6.10;;;3.03;;
44588;SDS011;30298;52.562;13.414;2022-10-22T14:44:02;7.50;;;3.10;;
44588;SDS011;30298;52.562;13.414;2022-10-22T14:46:27;6.60;;;3.03;;
44588;SDS011;30298;52.562;13.414;2022-10-22T14:48:52;8.80;;;3.33;;
44588;SDS011;30298;52.562;13.414;2022-10-22T14:51:19;6.13;;;3.33;;
44588;SDS011;30298;52.562;13.414;2022-10-22T14:53:44;9.52;;;3.60;;
44588;SDS011;30298;52.562;13.414;2022-10-22T14:56:10;8.63;;;2.95;;
44588;SDS011;30298;52.562;13.414;2022-10-22T14:58:35;8.35;;;3.45;;
44588;SDS011;30298;52.562;13.414;2022-10-22T15:01:04;5.78;;;3.03;;
44588;SDS011;30298;52.562;13.414;2022-10-22T15:03:29;6.22;;;3.35;;
44588;SDS011;30298;52.562;13.414;2022-10-22T15:05:55;7.65;;;3.70;;
44588;SDS011;30298;52.562;13.414;2022-10-22T15:08:20;6.50;;;3.15;;
44588;SDS011;30298;52.562;13.414;2022-10-22T15:10:55;7.22;;;3.35;;
44588;SDS011;30298;52.562;13.414;2022-10-22T15:13:20;7.75;;;3.10;;
44588;SDS011;30298;52.562;13.414;2022-10-22T15:15:46;6.00;;;3.20;;
44588;SDS011;30298;52.562;13.414;2022-10-22T15:18:11;18.73;;;5.40;;
44588;SDS011;30298;52.562;13.414;2022-10-22T15:20:36;8.30;;;3.30;;
44588;SDS011;30298;52.562;13.414;2022-10-22T15:23:01;7.60;;;3.50;;
44588;SDS011;30298;52.562;13.414;2022-10-22T15:25:26;8.37;;;3.23;;
44588;SDS011;30298;52.562;13.414;2022-10-22T15:27:52;8.20;;;3.70;;
44588;SDS011;30298;52.562;13.414;2022-10-22T15:30:17;9.73;;;3.43;;
44588;SDS011;30298;52.562;13.414;2022-10-22T15:32:44;10.57;;;3.30;;
44588;SDS011;30298;52.562;13.414;2022-10-22T15:35:09;9.97;;;3.37;;
44588;SDS011;30298;52.562;13.414;2022-10-22T15:37:35;9.10;;;3.95;;
44588;SDS011;30298;52.562;13.414;2022-10-22T15:40:02;8.30;;;3.70;;
44588;SDS011;30298;52.562;13.414;2022-10-22T15:42:27;8.35;;;3.90;;
44588;SDS011;30298;52.562;13.414;2022-10-22T15:44:56;6.83;;;3.60;;
44588;SDS011;30298;52.562;13.414;2022-10-22T15:47:21;9.13;;;4.30;;
44588;SDS011;30298;52.562;13.414;2022-10-22T15:49:48;9.70;;;3.95;;
44588;SDS011;30298;52.562;13.414;2022-10-22T15:52:13;7.80;;;3.90;;
44588;SDS011;30298;52.562;13.414;2022-10-22T15:54:39;9.88;;;3.90;;
44588;SDS011;30298;52.562;13.414;2022-10-22T15:57:05;9.23;;;3.90;;
44588;SDS011;30298;52.562;13.414;2022-10-22T15:59:32;10.80;;;4.05;;
44588;SDS011;30298;52.562;13.414;2022-10-22T16:01:58;11.88;;;4.90;;
44588;SDS011;30298;52.562;13.414;2022-10-22T16:04:23;10.93;;;4.27;;
44588;SDS011;30298;52.562;13.414;2022-10-22T16:06:50;11.73;;;4.50;;
44588;SDS011;30298;52.562;13.414;2022-10-22T16:09:17;10.90;;;4.55;;
44588;SDS011;30298;52.562;13.414;2022-10-22T16:11:43;11.32;;;4.45;;